sensor_id;sensor_type;location;lat;lon;timestamp;temperature;humidity
10233;DHT22;5161;48.174;11.756;2024-02-21T00:01:35;8.30;68.40
10233;DHT22;5161;48.174;11.756;2024-02-21T00:04:01;8.20;68.40
10233;DHT22;5161;48.174;11.756;2024-02-21T00:06:26;8.10;69.10
10233;DHT22;5161;48.174;11.756;2024-02-21T00:08:52;8.20;69.10
10233;DHT22;5161;48.174;11.756;2024-02-21T00:11:17;8.20;69.00
10233;DHT22;5161;48.174;11.756;2024-02-21T00:13:43;8.30;68.70
10233;DHT22;5161;48.174;11.756;2024-02-21T00:16:09;8.30;68.50
10233;DHT22;5161;48.174;11.756;2024-02-21T00:18:36;8.20;68.90
10233;DHT22;5161;48.174;11.756;2024-02-21T00:21:01;8.20;69.00
10233;DHT22;5161;48.174;11.756;2024-02-21T00:23:27;8.20;69.10
10233;DHT22;5161;48.174;11.756;2024-02-21T00:25:54;8.10;69.30
10233;DHT22;5161;48.174;11.756;2024-02-21T00:28:19;8.00;69.30
10233;DHT22;5161;48.174;11.756;2024-02-21T00:30:45;8.10;69.50
10233;DHT22;5161;48.174;11.756;2024-02-21T00:33:13;8.00;69.30
10233;DHT22;5161;48.174;11.756;2024-02-21T00:35:39;7.90;69.40
10233;DHT22;5161;48.174;11.756;2024-02-21T00:38:04;7.90;69.60
10233;DHT22;5161;48.174;11.756;2024-02-21T00:40:30;7.90;69.60
10233;DHT22;5161;48.174;11.756;2024-02-21T00:42:56;8.00;69.70
10233;DHT22;5161;48.174;11.756;2024-02-21T00:45:21;8.00;69.50
10233;DHT22;5161;48.174;11.756;2024-02-21T00:47:47;8.00;69.40
10233;DHT22;5161;48.174;11.756;2024-02-21T00:50:12;8.10;69.50
10233;DHT22;5161;48.174;11.756;2024-02-21T00:52:38;8.20;69.60
10233;DHT22;5161;48.174;11.756;2024-02-21T00:55:04;8.20;70.10
10233;DHT22;5161;48.174;11.756;2024-02-21T00:57:30;8.10;69.40
10233;DHT22;5161;48.174;11.756;2024-02-21T00:59:56;8.00;69.80
10233;DHT22;5161;48.174;11.756;2024-02-21T01:02:21;8.00;69.90
10233;DHT22;5161;48.174;11.756;2024-02-21T01:04:47;8.10;69.90
10233;DHT22;5161;48.174;11.756;2024-02-21T01:07:12;8.10;69.80
10233;DHT22;5161;48.174;11.756;2024-02-21T01:09:38;8.20;70.00
10233;DHT22;5161;48.174;11.756;2024-02-21T01:12:03;8.10;70.00
10233;DHT22;5161;48.174;11.756;2024-02-21T01:14:29;8.20;70.10
10233;DHT22;5161;48.174;11.756;2024-02-21T01:16:55;8.20;70.00
10233;DHT22;5161;48.174;11.756;2024-02-21T01:19:20;8.20;70.00
10233;DHT22;5161;48.174;11.756;2024-02-21T01:21:46;8.20;70.00
10233;DHT22;5161;48.174;11.756;2024-02-21T01:24:11;8.10;69.80
10233;DHT22;5161;48.174;11.756;2024-02-21T01:26:37;8.10;70.10
10233;DHT22;5161;48.174;11.756;2024-02-21T01:29:02;8.00;70.20
10233;DHT22;5161;48.174;11.756;2024-02-21T01:31:28;7.80;70.30
10233;DHT22;5161;48.174;11.756;2024-02-21T01:33:53;7.90;70.40
10233;DHT22;5161;48.174;11.756;2024-02-21T01:36:19;8.00;70.40
10233;DHT22;5161;48.174;11.756;2024-02-21T01:38:44;8.00;70.30
10233;DHT22;5161;48.174;11.756;2024-02-21T01:41:10;8.00;70.40
10233;DHT22;5161;48.174;11.756;2024-02-21T01:43:35;7.90;70.40
10233;DHT22;5161;48.174;11.756;2024-02-21T01:46:01;7.90;70.50
10233;DHT22;5161;48.174;11.756;2024-02-21T01:48:27;8.00;70.70
10233;DHT22;5161;48.174;11.756;2024-02-21T01:50:54;8.00;70.50
10233;DHT22;5161;48.174;11.756;2024-02-21T01:53:26;8.00;70.60
10233;DHT22;5161;48.174;11.756;2024-02-21T01:55:53;8.00;70.50
10233;DHT22;5161;48.174;11.756;2024-02-21T01:58:19;8.00;70.30
10233;DHT22;5161;48.174;11.756;2024-02-21T02:00:46;8.00;70.30
10233;DHT22;5161;48.174;11.756;2024-02-21T02:03:13;8.00;70.40
10233;DHT22;5161;48.174;11.756;2024-02-21T02:05:45;7.90;70.40
10233;DHT22;5161;48.174;11.756;2024-02-21T02:08:15;7.90;70.60
10233;DHT22;5161;48.174;11.756;2024-02-21T02:10:41;8.00;70.60
10233;DHT22;5161;48.174;11.756;2024-02-21T02:13:07;7.90;70.50
10233;DHT22;5161;48.174;11.756;2024-02-21T02:15:43;7.90;70.60
10233;DHT22;5161;48.174;11.756;2024-02-21T02:18:08;7.90;72.30
10233;DHT22;5161;48.174;11.756;2024-02-21T02:20:35;7.90;70.50
10233;DHT22;5161;48.174;11.756;2024-02-21T02:23:12;8.00;70.80
10233;DHT22;5161;48.174;11.756;2024-02-21T02:25:38;8.00;70.80
10233;DHT22;5161;48.174;11.756;2024-02-21T02:28:07;8.00;70.60
10233;DHT22;5161;48.174;11.756;2024-02-21T02:30:37;8.00;70.50
10233;DHT22;5161;48.174;11.756;2024-02-21T02:33:05;8.00;70.40
10233;DHT22;5161;48.174;11.756;2024-02-21T02:35:31;8.00;70.60
10233;DHT22;5161;48.174;11.756;2024-02-21T02:37:58;8.10;70.80
10233;DHT22;5161;48.174;11.756;2024-02-21T02:40:24;8.10;70.60
10233;DHT22;5161;48.174;11.756;2024-02-21T02:42:50;8.10;70.80
10233;DHT22;5161;48.174;11.756;2024-02-21T02:45:16;8.10;70.70
10233;DHT22;5161;48.174;11.756;2024-02-21T02:47:44;8.10;70.90
10233;DHT22;5161;48.174;11.756;2024-02-21T02:50:11;8.10;70.80
10233;DHT22;5161;48.174;11.756;2024-02-21T02:52:36;8.10;70.60
10233;DHT22;5161;48.174;11.756;2024-02-21T02:55:02;8.10;70.80
10233;DHT22;5161;48.174;11.756;2024-02-21T02:57:28;8.10;70.70
10233;DHT22;5161;48.174;11.756;2024-02-21T02:59:53;8.10;70.60
10233;DHT22;5161;48.174;11.756;2024-02-21T03:02:19;8.10;70.70
10233;DHT22;5161;48.174;11.756;2024-02-21T03:04:44;8.00;70.60
10233;DHT22;5161;48.174;11.756;2024-02-21T03:07:10;8.00;70.70
10233;DHT22;5161;48.174;11.756;2024-02-21T03:09:39;8.00;70.50
10233;DHT22;5161;48.174;11.756;2024-02-21T03:12:06;8.00;70.50
10233;DHT22;5161;48.174;11.756;2024-02-21T03:14:34;8.10;70.50
10233;DHT22;5161;48.174;11.756;2024-02-21T03:17:01;8.00;70.70
10233;DHT22;5161;48.174;11.756;2024-02-21T03:19:27;8.10;70.70
10233;DHT22;5161;48.174;11.756;2024-02-21T03:21:53;8.00;70.40
10233;DHT22;5161;48.174;11.756;2024-02-21T03:24:19;8.00;70.60
10233;DHT22;5161;48.174;11.756;2024-02-21T03:26:45;8.10;70.60
10233;DHT22;5161;48.174;11.756;2024-02-21T03:29:13;8.00;70.40
10233;DHT22;5161;48.174;11.756;2024-02-21T03:31:39;8.00;70.50
10233;DHT22;5161;48.174;11.756;2024-02-21T03:34:05;8.00;70.50
10233;DHT22;5161;48.174;11.756;2024-02-21T03:36:31;8.10;70.50
10233;DHT22;5161;48.174;11.756;2024-02-21T03:38:56;8.10;70.60
10233;DHT22;5161;48.174;11.756;2024-02-21T03:41:22;8.10;70.40
10233;DHT22;5161;48.174;11.756;2024-02-21T03:43:47;8.10;70.40
10233;DHT22;5161;48.174;11.756;2024-02-21T03:46:14;8.10;70.50
10233;DHT22;5161;48.174;11.756;2024-02-21T03:48:40;8.00;70.50
10233;DHT22;5161;48.174;11.756;2024-02-21T03:51:06;8.10;70.70
10233;DHT22;5161;48.174;11.756;2024-02-21T03:53:32;8.10;70.30
10233;DHT22;5161;48.174;11.756;2024-02-21T03:56:00;8.10;70.40
10233;DHT22;5161;48.174;11.756;2024-02-21T03:58:28;8.20;70.50
10233;DHT22;5161;48.174;11.756;2024-02-21T04:00:54;8.20;70.20
10233;DHT22;5161;48.174;11.756;2024-02-21T04:03:19;8.20;70.50
10233;DHT22;5161;48.174;11.756;2024-02-21T04:05:45;8.10;70.10
10233;DHT22;5161;48.174;11.756;2024-02-21T04:08:11;8.00;70.00
10233;DHT22;5161;48.174;11.756;2024-02-21T04:10:37;8.10;70.30
10233;DHT22;5161;48.174;11.756;2024-02-21T04:13:05;8.10;70.20
10233;DHT22;5161;48.174;11.756;2024-02-21T04:15:31;8.10;70.30
10233;DHT22;5161;48.174;11.756;2024-02-21T04:17:57;8.10;69.80
10233;DHT22;5161;48.174;11.756;2024-02-21T04:20:22;8.10;70.60
10233;DHT22;5161;48.174;11.756;2024-02-21T04:22:48;8.10;70.30
10233;DHT22;5161;48.174;11.756;2024-02-21T04:25:14;8.00;70.20
10233;DHT22;5161;48.174;11.756;2024-02-21T04:27:40;8.00;70.20
10233;DHT22;5161;48.174;11.756;2024-02-21T04:30:07;8.10;70.30
10233;DHT22;5161;48.174;11.756;2024-02-21T04:32:33;8.00;69.90
10233;DHT22;5161;48.174;11.756;2024-02-21T04:34:58;8.00;70.20
10233;DHT22;5161;48.174;11.756;2024-02-21T04:37:24;8.10;70.20
10233;DHT22;5161;48.174;11.756;2024-02-21T04:39:50;8.20;70.10
10233;DHT22;5161;48.174;11.756;2024-02-21T04:42:16;8.20;69.90
10233;DHT22;5161;48.174;11.756;2024-02-21T04:44:41;8.20;69.60
10233;DHT22;5161;48.174;11.756;2024-02-21T04:47:07;8.20;69.30
10233;DHT22;5161;48.174;11.756;2024-02-21T04:49:33;8.10;69.80
10233;DHT22;5161;48.174;11.756;2024-02-21T04:51:59;8.10;69.80
10233;DHT22;5161;48.174;11.756;2024-02-21T04:54:24;8.10;69.70
10233;DHT22;5161;48.174;11.756;2024-02-21T04:56:50;8.10;70.00
10233;DHT22;5161;48.174;11.756;2024-02-21T04:59:16;8.00;69.90
10233;DHT22;5161;48.174;11.756;2024-02-21T05:01:42;8.00;69.90
10233;DHT22;5161;48.174;11.756;2024-02-21T05:04:07;8.10;70.00
10233;DHT22;5161;48.174;11.756;2024-02-21T05:06:37;8.10;69.50
10233;DHT22;5161;48.174;11.756;2024-02-21T05:09:04;8.00;69.80
10233;DHT22;5161;48.174;11.756;2024-02-21T05:11:30;7.90;69.80
10233;DHT22;5161;48.174;11.756;2024-02-21T05:13:56;7.90;69.80
10233;DHT22;5161;48.174;11.756;2024-02-21T05:16:21;7.80;69.80
10233;DHT22;5161;48.174;11.756;2024-02-21T05:18:47;7.80;69.70
10233;DHT22;5161;48.174;11.756;2024-02-21T05:21:13;7.80;69.70
10233;DHT22;5161;48.174;11.756;2024-02-21T05:23:38;7.70;69.60
10233;DHT22;5161;48.174;11.756;2024-02-21T05:26:05;7.60;69.60
10233;DHT22;5161;48.174;11.756;2024-02-21T05:28:31;7.60;69.70
10233;DHT22;5161;48.174;11.756;2024-02-21T05:30:57;7.60;69.60
10233;DHT22;5161;48.174;11.756;2024-02-21T05:33:22;7.60;69.80
10233;DHT22;5161;48.174;11.756;2024-02-21T05:35:48;7.60;69.70
10233;DHT22;5161;48.174;11.756;2024-02-21T05:38:14;7.60;69.50
10233;DHT22;5161;48.174;11.756;2024-02-21T05:40:40;7.70;69.50
10233;DHT22;5161;48.174;11.756;2024-02-21T05:43:07;7.60;69.70
10233;DHT22;5161;48.174;11.756;2024-02-21T05:45:33;7.60;69.80
10233;DHT22;5161;48.174;11.756;2024-02-21T05:47:58;7.50;69.50
10233;DHT22;5161;48.174;11.756;2024-02-21T05:50:25;7.50;69.30
10233;DHT22;5161;48.174;11.756;2024-02-21T05:52:52;7.50;69.60
10233;DHT22;5161;48.174;11.756;2024-02-21T05:55:18;7.60;69.50
10233;DHT22;5161;48.174;11.756;2024-02-21T05:57:43;7.60;69.40
10233;DHT22;5161;48.174;11.756;2024-02-21T06:00:09;7.50;69.40
10233;DHT22;5161;48.174;11.756;2024-02-21T06:02:35;7.60;69.40
10233;DHT22;5161;48.174;11.756;2024-02-21T06:05:00;7.60;69.50
10233;DHT22;5161;48.174;11.756;2024-02-21T06:07:26;7.40;69.30
10233;DHT22;5161;48.174;11.756;2024-02-21T06:09:51;7.40;70.00
10233;DHT22;5161;48.174;11.756;2024-02-21T06:12:17;7.40;70.10
10233;DHT22;5161;48.174;11.756;2024-02-21T06:14:43;7.30;70.60
10233;DHT22;5161;48.174;11.756;2024-02-21T06:17:08;7.40;70.00
10233;DHT22;5161;48.174;11.756;2024-02-21T06:19:34;7.40;70.10
10233;DHT22;5161;48.174;11.756;2024-02-21T06:21:59;7.20;70.60
10233;DHT22;5161;48.174;11.756;2024-02-21T06:24:25;7.40;70.50
10233;DHT22;5161;48.174;11.756;2024-02-21T06:26:50;7.40;70.20
10233;DHT22;5161;48.174;11.756;2024-02-21T06:29:16;7.40;70.40
10233;DHT22;5161;48.174;11.756;2024-02-21T06:31:42;7.40;70.50
10233;DHT22;5161;48.174;11.756;2024-02-21T06:34:07;7.50;70.00
10233;DHT22;5161;48.174;11.756;2024-02-21T06:36:33;7.50;69.80
10233;DHT22;5161;48.174;11.756;2024-02-21T06:38:59;7.50;69.90
10233;DHT22;5161;48.174;11.756;2024-02-21T06:41:24;7.50;69.80
10233;DHT22;5161;48.174;11.756;2024-02-21T06:43:50;7.50;69.70
10233;DHT22;5161;48.174;11.756;2024-02-21T06:46:26;7.50;69.90
10233;DHT22;5161;48.174;11.756;2024-02-21T06:48:52;7.40;71.00
10233;DHT22;5161;48.174;11.756;2024-02-21T06:51:18;7.50;69.90
10233;DHT22;5161;48.174;11.756;2024-02-21T06:53:43;7.40;69.70
10233;DHT22;5161;48.174;11.756;2024-02-21T06:56:10;7.40;69.70
10233;DHT22;5161;48.174;11.756;2024-02-21T06:58:35;7.20;70.20
10233;DHT22;5161;48.174;11.756;2024-02-21T07:01:01;7.10;70.90
10233;DHT22;5161;48.174;11.756;2024-02-21T07:03:27;7.20;71.00
10233;DHT22;5161;48.174;11.756;2024-02-21T07:05:52;7.20;70.90
10233;DHT22;5161;48.174;11.756;2024-02-21T07:08:18;7.10;71.70
10233;DHT22;5161;48.174;11.756;2024-02-21T07:10:44;7.20;70.90
10233;DHT22;5161;48.174;11.756;2024-02-21T07:13:09;7.20;71.30
10233;DHT22;5161;48.174;11.756;2024-02-21T07:15:35;7.20;70.70
10233;DHT22;5161;48.174;11.756;2024-02-21T07:18:01;7.20;70.40
10233;DHT22;5161;48.174;11.756;2024-02-21T07:20:27;7.30;70.30
10233;DHT22;5161;48.174;11.756;2024-02-21T07:22:53;7.40;69.60
10233;DHT22;5161;48.174;11.756;2024-02-21T07:25:18;7.40;69.70
10233;DHT22;5161;48.174;11.756;2024-02-21T07:27:44;7.30;69.60
10233;DHT22;5161;48.174;11.756;2024-02-21T07:30:10;7.40;69.80
10233;DHT22;5161;48.174;11.756;2024-02-21T07:32:36;7.40;69.70
10233;DHT22;5161;48.174;11.756;2024-02-21T07:35:01;7.50;69.60
10233;DHT22;5161;48.174;11.756;2024-02-21T07:37:27;7.60;69.50
10233;DHT22;5161;48.174;11.756;2024-02-21T07:39:53;7.60;69.50
10233;DHT22;5161;48.174;11.756;2024-02-21T07:42:18;7.60;69.70
10233;DHT22;5161;48.174;11.756;2024-02-21T07:44:45;7.60;69.50
10233;DHT22;5161;48.174;11.756;2024-02-21T07:47:10;7.70;69.60
10233;DHT22;5161;48.174;11.756;2024-02-21T07:49:45;7.70;69.40
10233;DHT22;5161;48.174;11.756;2024-02-21T07:52:11;7.80;69.40
10233;DHT22;5161;48.174;11.756;2024-02-21T07:54:37;7.80;68.90
10233;DHT22;5161;48.174;11.756;2024-02-21T07:57:03;7.80;68.50
10233;DHT22;5161;48.174;11.756;2024-02-21T07:59:29;7.80;68.80
10233;DHT22;5161;48.174;11.756;2024-02-21T08:01:58;7.80;68.80
10233;DHT22;5161;48.174;11.756;2024-02-21T08:04:24;7.90;69.10
10233;DHT22;5161;48.174;11.756;2024-02-21T08:06:53;7.80;68.10
10233;DHT22;5161;48.174;11.756;2024-02-21T08:09:24;7.90;68.90
10233;DHT22;5161;48.174;11.756;2024-02-21T08:11:49;7.90;67.50
10233;DHT22;5161;48.174;11.756;2024-02-21T08:14:15;7.90;67.50
10233;DHT22;5161;48.174;11.756;2024-02-21T08:16:42;7.80;68.70
10233;DHT22;5161;48.174;11.756;2024-02-21T08:19:08;7.80;69.20
10233;DHT22;5161;48.174;11.756;2024-02-21T08:21:33;7.80;69.10
10233;DHT22;5161;48.174;11.756;2024-02-21T08:23:59;7.80;68.60
10233;DHT22;5161;48.174;11.756;2024-02-21T08:26:24;7.70;69.10
10233;DHT22;5161;48.174;11.756;2024-02-21T08:28:53;7.80;69.30
10233;DHT22;5161;48.174;11.756;2024-02-21T08:31:22;7.80;68.90
10233;DHT22;5161;48.174;11.756;2024-02-21T08:33:49;7.80;68.90
10233;DHT22;5161;48.174;11.756;2024-02-21T08:36:18;7.90;69.10
10233;DHT22;5161;48.174;11.756;2024-02-21T08:38:47;7.80;69.10
10233;DHT22;5161;48.174;11.756;2024-02-21T08:41:12;7.90;68.80
10233;DHT22;5161;48.174;11.756;2024-02-21T08:43:38;7.90;69.00
10233;DHT22;5161;48.174;11.756;2024-02-21T08:46:04;7.90;69.30
10233;DHT22;5161;48.174;11.756;2024-02-21T08:48:30;8.00;69.50
10233;DHT22;5161;48.174;11.756;2024-02-21T08:50:56;8.00;69.50
10233;DHT22;5161;48.174;11.756;2024-02-21T08:53:22;8.10;69.50
10233;DHT22;5161;48.174;11.756;2024-02-21T08:55:48;8.20;69.60
10233;DHT22;5161;48.174;11.756;2024-02-21T08:58:13;8.30;68.80
10233;DHT22;5161;48.174;11.756;2024-02-21T09:00:40;8.30;67.80
10233;DHT22;5161;48.174;11.756;2024-02-21T09:03:05;8.30;68.20
10233;DHT22;5161;48.174;11.756;2024-02-21T09:05:31;8.30;68.30
10233;DHT22;5161;48.174;11.756;2024-02-21T09:07:57;8.40;68.00
10233;DHT22;5161;48.174;11.756;2024-02-21T09:10:22;8.40;67.80
10233;DHT22;5161;48.174;11.756;2024-02-21T09:12:48;8.50;67.90
10233;DHT22;5161;48.174;11.756;2024-02-21T09:15:13;8.50;66.90
10233;DHT22;5161;48.174;11.756;2024-02-21T09:17:39;8.50;67.00
10233;DHT22;5161;48.174;11.756;2024-02-21T09:20:05;8.50;67.50
10233;DHT22;5161;48.174;11.756;2024-02-21T09:22:32;8.60;67.70
10233;DHT22;5161;48.174;11.756;2024-02-21T09:25:00;8.80;67.60
10233;DHT22;5161;48.174;11.756;2024-02-21T09:27:26;8.80;67.50
10233;DHT22;5161;48.174;11.756;2024-02-21T09:29:51;8.80;66.60
10233;DHT22;5161;48.174;11.756;2024-02-21T09:32:18;8.80;66.20
10233;DHT22;5161;48.174;11.756;2024-02-21T09:34:44;8.80;66.50
10233;DHT22;5161;48.174;11.756;2024-02-21T09:37:10;8.80;66.00
10233;DHT22;5161;48.174;11.756;2024-02-21T09:39:36;8.80;66.40
10233;DHT22;5161;48.174;11.756;2024-02-21T09:42:06;8.90;65.50
10233;DHT22;5161;48.174;11.756;2024-02-21T09:44:37;8.90;66.00
10233;DHT22;5161;48.174;11.756;2024-02-21T09:47:09;8.90;65.80
10233;DHT22;5161;48.174;11.756;2024-02-21T09:49:35;9.00;66.40
10233;DHT22;5161;48.174;11.756;2024-02-21T09:52:07;9.10;66.30
10233;DHT22;5161;48.174;11.756;2024-02-21T09:54:33;9.20;65.20
10233;DHT22;5161;48.174;11.756;2024-02-21T09:57:03;9.20;65.00
10233;DHT22;5161;48.174;11.756;2024-02-21T09:59:31;9.10;64.20
10233;DHT22;5161;48.174;11.756;2024-02-21T10:01:56;9.20;65.20
10233;DHT22;5161;48.174;11.756;2024-02-21T10:04:22;9.20;64.10
10233;DHT22;5161;48.174;11.756;2024-02-21T10:06:48;9.30;65.10
10233;DHT22;5161;48.174;11.756;2024-02-21T10:11:48;9.40;64.20
10233;DHT22;5161;48.174;11.756;2024-02-21T10:14:15;9.40;64.80
10233;DHT22;5161;48.174;11.756;2024-02-21T10:16:41;9.50;63.80
10233;DHT22;5161;48.174;11.756;2024-02-21T10:19:06;9.50;64.80
10233;DHT22;5161;48.174;11.756;2024-02-21T10:21:32;9.60;65.40
10233;DHT22;5161;48.174;11.756;2024-02-21T10:23:57;9.60;63.90
10233;DHT22;5161;48.174;11.756;2024-02-21T10:26:23;9.70;63.00
10233;DHT22;5161;48.174;11.756;2024-02-21T10:28:49;9.70;62.90
10233;DHT22;5161;48.174;11.756;2024-02-21T10:31:26;9.80;63.80
10233;DHT22;5161;48.174;11.756;2024-02-21T10:34:00;9.80;62.50
10233;DHT22;5161;48.174;11.756;2024-02-21T10:36:28;9.80;63.00
10233;DHT22;5161;48.174;11.756;2024-02-21T10:38:54;9.90;63.30
10233;DHT22;5161;48.174;11.756;2024-02-21T10:41:21;9.90;63.00
10233;DHT22;5161;48.174;11.756;2024-02-21T10:43:54;9.90;63.10
10233;DHT22;5161;48.174;11.756;2024-02-21T10:46:21;10.00;62.30
10233;DHT22;5161;48.174;11.756;2024-02-21T10:48:50;10.00;61.40
10233;DHT22;5161;48.174;11.756;2024-02-21T10:51:19;10.10;61.50
10233;DHT22;5161;48.174;11.756;2024-02-21T10:56:26;10.20;60.40
10233;DHT22;5161;48.174;11.756;2024-02-21T10:58:53;10.30;61.20
10233;DHT22;5161;48.174;11.756;2024-02-21T11:01:21;10.30;60.30
10233;DHT22;5161;48.174;11.756;2024-02-21T11:03:49;10.40;60.10
10233;DHT22;5161;48.174;11.756;2024-02-21T11:06:16;10.40;59.20
10233;DHT22;5161;48.174;11.756;2024-02-21T11:08:43;10.40;58.60
10233;DHT22;5161;48.174;11.756;2024-02-21T11:11:12;10.50;58.60
10233;DHT22;5161;48.174;11.756;2024-02-21T11:13:43;10.50;59.90
10233;DHT22;5161;48.174;11.756;2024-02-21T11:16:09;10.60;58.30
10233;DHT22;5161;48.174;11.756;2024-02-21T11:18:37;10.60;57.90
10233;DHT22;5161;48.174;11.756;2024-02-21T11:21:02;10.70;58.20
10233;DHT22;5161;48.174;11.756;2024-02-21T11:23:30;10.80;58.80
10233;DHT22;5161;48.174;11.756;2024-02-21T11:26:06;10.90;56.60
10233;DHT22;5161;48.174;11.756;2024-02-21T11:28:32;11.00;57.60
10233;DHT22;5161;48.174;11.756;2024-02-21T11:31:08;11.10;57.00
10233;DHT22;5161;48.174;11.756;2024-02-21T11:33:35;11.20;58.00
10233;DHT22;5161;48.174;11.756;2024-02-21T11:36:01;11.30;57.50
10233;DHT22;5161;48.174;11.756;2024-02-21T11:38:29;11.40;57.20
10233;DHT22;5161;48.174;11.756;2024-02-21T11:40:55;11.50;58.40
10233;DHT22;5161;48.174;11.756;2024-02-21T11:43:21;11.70;58.00
10233;DHT22;5161;48.174;11.756;2024-02-21T11:45:46;11.80;57.90
10233;DHT22;5161;48.174;11.756;2024-02-21T11:48:12;12.00;57.30
10233;DHT22;5161;48.174;11.756;2024-02-21T11:50:38;12.00;56.70
10233;DHT22;5161;48.174;11.756;2024-02-21T11:53:05;12.20;57.60
10233;DHT22;5161;48.174;11.756;2024-02-21T11:55:30;12.20;59.20
10233;DHT22;5161;48.174;11.756;2024-02-21T11:57:56;12.30;54.50
10233;DHT22;5161;48.174;11.756;2024-02-21T12:00:22;12.30;56.80
10233;DHT22;5161;48.174;11.756;2024-02-21T12:02:50;12.30;56.50
10233;DHT22;5161;48.174;11.756;2024-02-21T12:05:16;12.40;56.50
10233;DHT22;5161;48.174;11.756;2024-02-21T12:07:42;12.50;57.20
10233;DHT22;5161;48.174;11.756;2024-02-21T12:10:11;12.70;58.20
10233;DHT22;5161;48.174;11.756;2024-02-21T12:12:37;12.80;59.10
10233;DHT22;5161;48.174;11.756;2024-02-21T12:15:05;13.00;58.80
10233;DHT22;5161;48.174;11.756;2024-02-21T12:17:35;13.00;55.20
10233;DHT22;5161;48.174;11.756;2024-02-21T12:20:05;13.10;57.80
10233;DHT22;5161;48.174;11.756;2024-02-21T12:22:31;13.30;58.40
10233;DHT22;5161;48.174;11.756;2024-02-21T12:25:03;13.40;54.60
10233;DHT22;5161;48.174;11.756;2024-02-21T12:27:29;13.60;57.80
10233;DHT22;5161;48.174;11.756;2024-02-21T12:29:55;13.60;56.30
10233;DHT22;5161;48.174;11.756;2024-02-21T12:32:21;13.70;52.70
10233;DHT22;5161;48.174;11.756;2024-02-21T12:34:46;13.80;52.60
10233;DHT22;5161;48.174;11.756;2024-02-21T12:37:12;13.90;54.00
10233;DHT22;5161;48.174;11.756;2024-02-21T12:39:38;14.10;54.20
10233;DHT22;5161;48.174;11.756;2024-02-21T12:42:04;14.30;56.90
10233;DHT22;5161;48.174;11.756;2024-02-21T12:44:30;14.50;54.70
10233;DHT22;5161;48.174;11.756;2024-02-21T12:46:55;14.50;51.20
10233;DHT22;5161;48.174;11.756;2024-02-21T12:49:21;14.40;50.70
10233;DHT22;5161;48.174;11.756;2024-02-21T12:51:46;14.40;50.60
10233;DHT22;5161;48.174;11.756;2024-02-21T12:54:12;14.50;50.60
10233;DHT22;5161;48.174;11.756;2024-02-21T12:56:38;14.70;50.90
10233;DHT22;5161;48.174;11.756;2024-02-21T12:59:05;14.80;53.20
10233;DHT22;5161;48.174;11.756;2024-02-21T13:01:33;14.90;52.10
10233;DHT22;5161;48.174;11.756;2024-02-21T13:03:58;15.00;54.00
10233;DHT22;5161;48.174;11.756;2024-02-21T13:06:26;15.20;53.40
10233;DHT22;5161;48.174;11.756;2024-02-21T13:08:52;15.30;54.00
10233;DHT22;5161;48.174;11.756;2024-02-21T13:11:17;15.20;52.10
10233;DHT22;5161;48.174;11.756;2024-02-21T13:13:43;15.20;52.80
10233;DHT22;5161;48.174;11.756;2024-02-21T13:16:09;15.10;50.50
10233;DHT22;5161;48.174;11.756;2024-02-21T13:18:35;15.00;49.50
10233;DHT22;5161;48.174;11.756;2024-02-21T13:21:04;15.00;49.60
10233;DHT22;5161;48.174;11.756;2024-02-21T13:23:30;15.10;49.70
10233;DHT22;5161;48.174;11.756;2024-02-21T13:25:55;15.10;49.10
10233;DHT22;5161;48.174;11.756;2024-02-21T13:28:21;15.10;49.50
10233;DHT22;5161;48.174;11.756;2024-02-21T13:30:47;15.20;51.30
10233;DHT22;5161;48.174;11.756;2024-02-21T13:33:13;15.20;48.90
10233;DHT22;5161;48.174;11.756;2024-02-21T13:35:39;15.20;50.90
10233;DHT22;5161;48.174;11.756;2024-02-21T13:38:04;15.10;48.10
10233;DHT22;5161;48.174;11.756;2024-02-21T13:40:30;15.00;47.60
10233;DHT22;5161;48.174;11.756;2024-02-21T13:42:56;14.90;49.00
10233;DHT22;5161;48.174;11.756;2024-02-21T13:45:22;14.90;47.20
10233;DHT22;5161;48.174;11.756;2024-02-21T13:47:47;14.80;47.30
10233;DHT22;5161;48.174;11.756;2024-02-21T13:50:14;14.90;49.10
10233;DHT22;5161;48.174;11.756;2024-02-21T13:52:40;14.90;47.30
10233;DHT22;5161;48.174;11.756;2024-02-21T13:55:06;14.90;46.30
10233;DHT22;5161;48.174;11.756;2024-02-21T13:57:38;14.80;49.40
10233;DHT22;5161;48.174;11.756;2024-02-21T14:00:07;14.90;47.70
10233;DHT22;5161;48.174;11.756;2024-02-21T14:02:36;14.90;47.00
10233;DHT22;5161;48.174;11.756;2024-02-21T14:05:02;14.90;48.50
10233;DHT22;5161;48.174;11.756;2024-02-21T14:07:31;14.80;46.30
10233;DHT22;5161;48.174;11.756;2024-02-21T14:09:58;14.80;47.50
10233;DHT22;5161;48.174;11.756;2024-02-21T14:12:24;14.80;48.20
10233;DHT22;5161;48.174;11.756;2024-02-21T14:14:50;14.80;48.90
10233;DHT22;5161;48.174;11.756;2024-02-21T14:17:15;14.80;45.80
10233;DHT22;5161;48.174;11.756;2024-02-21T14:19:41;14.80;47.20
10233;DHT22;5161;48.174;11.756;2024-02-21T14:22:07;14.70;46.90
10233;DHT22;5161;48.174;11.756;2024-02-21T14:24:32;14.80;46.60
10233;DHT22;5161;48.174;11.756;2024-02-21T14:26:58;14.80;47.40
10233;DHT22;5161;48.174;11.756;2024-02-21T14:29:25;14.70;46.40
10233;DHT22;5161;48.174;11.756;2024-02-21T14:31:50;14.70;45.40
10233;DHT22;5161;48.174;11.756;2024-02-21T14:34:16;14.60;45.60
10233;DHT22;5161;48.174;11.756;2024-02-21T14:36:42;14.60;47.10
10233;DHT22;5161;48.174;11.756;2024-02-21T14:39:07;14.60;46.70
10233;DHT22;5161;48.174;11.756;2024-02-21T14:41:33;14.70;47.00
10233;DHT22;5161;48.174;11.756;2024-02-21T14:44:00;14.70;47.50
10233;DHT22;5161;48.174;11.756;2024-02-21T14:46:27;14.60;46.60
10233;DHT22;5161;48.174;11.756;2024-02-21T14:48:55;14.60;46.20
10233;DHT22;5161;48.174;11.756;2024-02-21T14:51:21;14.60;46.50
10233;DHT22;5161;48.174;11.756;2024-02-21T14:53:47;14.70;47.50
10233;DHT22;5161;48.174;11.756;2024-02-21T14:56:14;14.60;47.20
10233;DHT22;5161;48.174;11.756;2024-02-21T14:58:43;14.60;46.90
10233;DHT22;5161;48.174;11.756;2024-02-21T15:01:09;14.60;47.30
10233;DHT22;5161;48.174;11.756;2024-02-21T15:03:35;14.60;46.70
10233;DHT22;5161;48.174;11.756;2024-02-21T15:06:01;14.60;47.20
10233;DHT22;5161;48.174;11.756;2024-02-21T15:08:27;14.60;47.30
10233;DHT22;5161;48.174;11.756;2024-02-21T15:10:53;14.60;46.60
10233;DHT22;5161;48.174;11.756;2024-02-21T15:13:19;14.60;47.30
10233;DHT22;5161;48.174;11.756;2024-02-21T15:15:45;14.60;47.70
10233;DHT22;5161;48.174;11.756;2024-02-21T15:18:16;14.60;47.70
10233;DHT22;5161;48.174;11.756;2024-02-21T15:20:41;14.60;47.70
10233;DHT22;5161;48.174;11.756;2024-02-21T15:23:07;14.50;47.50
10233;DHT22;5161;48.174;11.756;2024-02-21T15:25:33;14.50;47.40
10233;DHT22;5161;48.174;11.756;2024-02-21T15:27:59;14.40;47.00
10233;DHT22;5161;48.174;11.756;2024-02-21T15:30:25;14.30;47.30
10233;DHT22;5161;48.174;11.756;2024-02-21T15:32:52;14.30;47.40
10233;DHT22;5161;48.174;11.756;2024-02-21T15:35:21;14.20;47.40
10233;DHT22;5161;48.174;11.756;2024-02-21T15:37:46;14.20;47.50
10233;DHT22;5161;48.174;11.756;2024-02-21T15:40:13;14.20;48.60
10233;DHT22;5161;48.174;11.756;2024-02-21T15:42:40;14.10;48.70